createdAt,value
2023-01-08T00:00:12.786Z,99621.94
2023-01-08T00:05:14.121Z,99621.28
2023-01-08T00:10:15.629Z,99612.47
2023-01-08T00:15:17.001Z,99606.34
2023-01-08T00:20:18.336Z,99592.28
2023-01-08T00:25:20.824Z,99572.22
2023-01-08T00:30:22.219Z,99565.25
2023-01-08T00:35:23.669Z,99551.44
2023-01-08T00:40:25.033Z,99553.16
2023-01-08T00:45:26.427Z,99547.25
2023-01-08T00:50:28.189Z,99546.25
2023-01-08T00:55:30.573Z,99552.97
2023-01-08T01:00:32.175Z,99539.22
2023-01-08T01:05:33.554Z,99535.38
2023-01-08T01:10:34.977Z,99536.34
2023-01-08T01:15:36.383Z,99534.84
2023-01-08T01:20:38.635Z,99532.94
2023-01-08T01:25:39.975Z,99537.69
2023-01-08T01:30:41.430Z,99538.91
2023-01-08T01:35:42.822Z,99546.97
2023-01-08T01:40:44.151Z,99540.03
2023-01-08T01:45:45.653Z,99543.31
2023-01-08T01:50:51.645Z,99547.34
2023-01-08T01:55:53.606Z,99530.50
2023-01-08T02:00:58.077Z,99530.78
2023-01-08T02:06:19.386Z,99519.47
2023-01-08T02:11:35.462Z,99528.88
2023-01-08T02:16:45.599Z,99527.69
2023-01-08T02:22:02.737Z,99519.22
2023-01-08T02:27:06.592Z,99511.41
2023-01-08T02:32:08.124Z,99507.72
2023-01-08T02:37:10.059Z,99502.19
2023-01-08T02:42:20.337Z,99499.03
2023-01-08T02:47:28.344Z,99500.25
2023-01-08T02:52:34.437Z,99495.00
2023-01-08T02:57:35.945Z,99493.56
2023-01-08T03:02:41.473Z,99479.91
2023-01-08T03:07:43.485Z,99465.19
2023-01-08T03:12:53.739Z,99471.78
2023-01-08T03:18:01.638Z,99469.09
2023-01-08T03:23:07.749Z,99459.50
2023-01-08T03:28:18.861Z,99465.31
2023-01-08T03:33:22.946Z,99456.56
2023-01-08T03:38:30.865Z,99451.16
2023-01-08T03:43:32.303Z,99442.28
2023-01-08T03:48:36.231Z,99440.56
2023-01-08T03:53:37.868Z,99445.69
2023-01-08T03:58:39.207Z,99425.63
2023-01-08T04:03:40.553Z,99428.50
2023-01-08T04:08:41.886Z,99419.63
2023-01-08T04:13:43.282Z,99411.16
2023-01-08T04:18:44.679Z,99397.69
2023-01-08T04:23:46.040Z,99394.09
2023-01-08T04:28:47.362Z,99389.63
2023-01-08T04:33:48.752Z,99386.28
2023-01-08T04:38:50.077Z,99380.56
2023-01-08T04:43:51.486Z,99380.97
2023-01-08T04:48:52.900Z,99380.16
2023-01-08T04:53:54.364Z,99375.41
2023-01-08T04:58:55.745Z,99375.03
2023-01-08T05:03:59.447Z,99376.44
2023-01-08T05:09:01.090Z,99367.59
2023-01-08T05:14:02.408Z,99363.03
2023-01-08T05:19:03.724Z,99370.84
2023-01-08T05:24:05.332Z,99368.59
2023-01-08T05:29:06.673Z,99365.09
2023-01-08T05:34:08.006Z,99363.47
2023-01-08T05:39:09.493Z,99358.66
2023-01-08T05:44:11.048Z,99361.09
2023-01-08T05:49:12.483Z,99366.13
2023-01-08T05:54:14.362Z,99363.84
2023-01-08T05:59:15.741Z,99359.34
2023-01-08T06:04:17.154Z,99360.53
2023-01-08T06:09:19.791Z,99370.44
2023-01-08T06:14:21.182Z,99369.97
2023-01-08T06:19:22.744Z,99360.66
2023-01-08T06:24:24.130Z,99362.13
2023-01-08T06:29:25.488Z,99363.72
2023-01-08T06:34:26.844Z,99365.84
2023-01-08T06:39:28.270Z,99358.41
2023-01-08T06:44:29.710Z,99353.63
2023-01-08T06:49:31.045Z,99357.41
2023-01-08T06:54:32.407Z,99356.16
2023-01-08T06:59:33.741Z,99368.72
2023-01-08T07:04:35.081Z,99369.34
2023-01-08T07:09:36.421Z,99365.84
2023-01-08T07:14:37.825Z,99361.69
2023-01-08T07:19:39.271Z,99382.72
2023-01-08T07:24:40.722Z,99378.19
2023-01-08T07:29:42.064Z,99382.50
2023-01-08T07:34:43.371Z,99382.94
2023-01-08T07:39:44.795Z,99386.88
2023-01-08T07:44:46.164Z,99377.16
2023-01-08T07:49:47.500Z,99383.16
2023-01-08T07:54:48.839Z,99384.41
2023-01-08T07:59:50.199Z,99375.09
2023-01-08T08:04:51.557Z,99380.28
2023-01-08T08:09:52.896Z,99380.56
2023-01-08T08:14:54.223Z,99368.78
2023-01-08T08:19:55.573Z,99373.16
2023-01-08T08:24:56.937Z,99373.16
2023-01-08T08:29:58.323Z,99377.72
2023-01-08T08:35:00.214Z,99376.72
2023-01-08T08:40:01.551Z,99383.09
2023-01-08T08:45:03.365Z,99384.34
2023-01-08T08:50:06.466Z,99384.25
2023-01-08T08:55:08.274Z,99383.78
2023-01-08T09:00:10.387Z,99380.88
2023-01-08T09:05:11.944Z,99370.38
2023-01-08T09:10:13.264Z,99379.91
2023-01-08T09:15:14.692Z,99367.69
2023-01-08T09:20:16.166Z,99372.03
2023-01-08T09:25:17.891Z,99368.91
2023-01-08T09:30:19.312Z,99377.41
2023-01-08T09:35:20.651Z,99384.06
2023-01-08T09:40:26.316Z,99389.47
2023-01-08T09:45:31.015Z,99381.41
2023-01-08T09:50:33.915Z,99389.91
2023-01-08T09:55:35.439Z,99384.28
2023-01-08T10:00:36.878Z,99370.91
2023-01-08T10:05:38.364Z,99372.53
2023-01-08T10:10:41.609Z,99372.78
2023-01-08T10:15:42.992Z,99381.50
2023-01-08T10:20:44.328Z,99379.22
2023-01-08T10:25:57.033Z,99357.31
2023-01-08T10:31:04.119Z,99346.59
2023-01-08T10:36:08.823Z,99343.50
2023-01-08T10:41:13.400Z,99324.91
2023-01-08T10:46:24.613Z,99324.09
2023-01-08T10:51:28.647Z,99333.47
2023-01-08T10:56:40.498Z,99324.75
2023-01-08T11:01:47.261Z,99314.00
2023-01-08T11:06:48.787Z,99304.72
2023-01-08T11:11:50.272Z,99305.34
2023-01-08T11:16:51.963Z,99296.25
2023-01-08T11:21:59.376Z,99302.06
2023-01-08T11:27:16.685Z,99289.63
2023-01-08T11:32:37.442Z,99278.66
2023-01-08T11:37:41.345Z,99261.66
2023-01-08T11:43:07.369Z,99242.63
2023-01-08T11:48:42.402Z,99246.78
2023-01-08T11:53:57.228Z,99243.66
2023-01-08T11:59:21.137Z,99219.63
2023-01-08T12:04:58.090Z,99205.53
2023-01-08T12:10:11.585Z,99197.03
2023-01-08T12:15:12.949Z,99205.09
2023-01-08T12:20:30.160Z,99192.00
2023-01-08T12:25:44.481Z,99175.03
2023-01-08T12:30:52.010Z,99170.69
2023-01-08T12:35:55.042Z,99163.47
2023-01-08T12:41:00.345Z,99151.06
2023-01-08T12:46:03.692Z,99155.78
2023-01-08T12:51:18.007Z,99148.13
2023-01-08T12:56:37.487Z,99133.19
2023-01-08T13:01:47.465Z,99128.84
2023-01-08T13:07:01.321Z,99124.50
2023-01-08T13:12:03.006Z,99115.56
2023-01-08T13:17:07.780Z,99125.03
2023-01-08T13:22:28.362Z,99110.94
2023-01-08T13:27:30.061Z,99116.13
2023-01-08T13:32:34.442Z,99108.25
2023-01-08T13:37:35.813Z,99106.97
2023-01-08T13:42:41.232Z,99107.63
2023-01-08T13:47:43.709Z,99101.41
2023-01-08T13:52:55.951Z,99101.41
2023-01-08T13:58:13.168Z,99091.72
2023-01-08T14:03:29.407Z,99089.28
2023-01-08T14:08:30.787Z,99081.78
2023-01-08T14:13:35.533Z,99077.00
2023-01-08T14:18:40.680Z,99076.19
2023-01-08T14:23:47.488Z,99057.09
2023-01-08T14:28:54.077Z,99061.00
2023-01-08T14:33:57.611Z,99061.06
2023-01-08T14:38:58.952Z,99062.75
2023-01-08T14:44:00.342Z,99058.63
2023-01-08T14:49:01.893Z,99057.19
2023-01-08T14:54:06.025Z,99052.19
2023-01-08T14:59:10.872Z,99059.00
2023-01-08T15:04:18.634Z,99041.66
2023-01-08T15:09:31.747Z,99036.91
2023-01-08T15:14:36.598Z,99033.81
2023-01-08T15:19:49.381Z,99019.97
2023-01-08T15:24:58.148Z,99016.06
2023-01-08T15:30:00.776Z,99016.06
2023-01-08T15:35:12.683Z,99030.38
2023-01-08T15:40:14.203Z,99023.56
2023-01-08T15:45:21.377Z,99028.09
2023-01-08T15:50:24.671Z,99013.41
2023-01-08T15:55:26.276Z,99012.41
2023-01-08T16:00:27.907Z,99010.13
2023-01-08T16:05:30.584Z,99006.97
2023-01-08T16:10:32.569Z,99000.78
2023-01-08T16:15:33.983Z,99005.34
2023-01-08T16:20:35.676Z,98996.88
2023-01-08T16:25:39.092Z,98987.31
2023-01-08T16:30:42.504Z,98985.91
2023-01-08T16:35:43.855Z,98989.00
2023-01-08T16:40:45.217Z,98981.38
2023-01-08T16:45:47.712Z,98984.09
2023-01-08T16:50:49.489Z,98967.34
2023-01-08T16:55:50.857Z,98964.50
2023-01-08T17:00:52.430Z,98962.41
2023-01-08T17:05:55.592Z,98958.75
2023-01-08T17:10:56.969Z,98953.59
2023-01-08T17:15:59.900Z,98941.81
2023-01-08T17:21:02.228Z,98949.47
2023-01-08T17:26:08.975Z,98940.81
2023-01-08T17:31:13.287Z,98941.59
2023-01-08T17:36:17.212Z,98938.25
2023-01-08T17:41:38.341Z,98924.38
2023-01-08T17:46:42.347Z,98932.47
2023-01-08T17:51:45.699Z,98915.47
2023-01-08T17:56:48.854Z,98916.69
2023-01-08T18:01:52.791Z,98905.91
2023-01-08T18:06:54.374Z,98910.41
2023-01-08T18:11:55.804Z,98903.97
2023-01-08T18:16:57.213Z,98890.09
2023-01-08T18:21:58.617Z,98884.91
2023-01-08T18:26:59.991Z,98878.06
2023-01-08T18:32:02.042Z,98875.34
2023-01-08T18:37:03.426Z,98863.28
2023-01-08T18:42:23.641Z,98861.41
2023-01-08T18:47:27.634Z,98862.91
2023-01-08T18:52:29.652Z,98859.13
2023-01-08T18:57:31.327Z,98860.31
2023-01-08T19:02:35.596Z,98851.22
2023-01-08T19:07:37.052Z,98839.19
2023-01-08T19:12:39.171Z,98847.47
2023-01-08T19:17:40.529Z,98841.19
2023-01-08T19:22:41.860Z,98849.88
2023-01-08T19:27:44.920Z,98822.13
2023-01-08T19:32:48.768Z,98839.78
2023-01-08T19:37:50.188Z,98829.44
2023-01-08T19:43:10.308Z,98813.66
2023-01-08T19:48:11.689Z,98799.41
2023-01-08T19:53:14.594Z,98792.13
2023-01-08T19:58:18.472Z,98772.91
2023-01-08T20:03:23.815Z,98774.00
2023-01-08T20:08:25.129Z,98748.59
2023-01-08T20:13:26.449Z,98749.06
2023-01-08T20:18:27.940Z,98739.28
2023-01-08T20:23:29.341Z,98725.25
2023-01-08T20:28:30.743Z,98731.75
2023-01-08T20:33:32.179Z,98721.38
2023-01-08T20:38:33.512Z,98726.16
2023-01-08T20:43:35.748Z,98712.50
2023-01-08T20:48:46.926Z,98699.63
2023-01-08T20:53:48.840Z,98684.91
2023-01-08T20:58:50.247Z,98693.28
2023-01-08T21:03:55.201Z,98689.22
2023-01-08T21:08:59.528Z,98678.69
2023-01-08T21:14:01.837Z,98664.66
2023-01-08T21:19:03.637Z,98660.97
2023-01-08T21:24:05.649Z,98658.44
2023-01-08T21:29:07.888Z,98651.78
2023-01-08T21:34:10.371Z,98651.78
2023-01-08T21:39:11.887Z,98630.09
2023-01-08T21:44:35.173Z,98621.38
2023-01-08T21:49:36.569Z,98619.13
2023-01-08T21:54:40.896Z,98595.72
2023-01-08T21:59:42.594Z,98588.25
2023-01-08T22:04:44.823Z,98595.50
2023-01-08T22:09:46.170Z,98571.53
2023-01-08T22:14:47.476Z,98554.28
2023-01-08T22:19:48.874Z,98548.38
2023-01-08T22:24:52.204Z,98541.34
2023-01-08T22:29:54.430Z,98539.09
2023-01-08T22:34:55.843Z,98525.06
2023-01-08T22:39:57.180Z,98512.53
2023-01-08T22:44:58.501Z,98509.47
2023-01-08T22:49:59.832Z,98500.78
2023-01-08T22:55:02.568Z,98491.16
2023-01-08T23:00:06.875Z,98481.53
2023-01-08T23:05:08.432Z,98480.19
2023-01-08T23:10:10.536Z,98471.38
2023-01-08T23:15:11.879Z,98468.84
2023-01-08T23:20:14.165Z,98461.00
2023-01-08T23:25:16.170Z,98460.63
2023-01-08T23:30:17.600Z,98456.16
2023-01-08T23:35:18.974Z,98456.56
2023-01-08T23:40:20.296Z,98456.22
2023-01-08T23:45:21.660Z,98454.94
2023-01-08T23:50:22.979Z,98460.75
2023-01-08T23:55:24.563Z,98447.69
